sensor_id;sensor_type;location;lat;lon;timestamp;P1;durP1;ratioP1;P2;durP2;ratioP2
6105;SDS011;3083;51.508;7.966;2023-04-24T00:00:42;2.83;;;1.20;;
6105;SDS011;3083;51.508;7.966;2023-04-24T00:03:10;3.13;;;1.10;;
6105;SDS011;3083;51.508;7.966;2023-04-24T00:05:37;2.73;;;1.20;;
6105;SDS011;3083;51.508;7.966;2023-04-24T00:08:07;2.67;;;1.30;;
6105;SDS011;3083;51.508;7.966;2023-04-24T00:10:34;2.90;;;1.10;;
6105;SDS011;3083;51.508;7.966;2023-04-24T00:13:01;3.13;;;1.10;;
6105;SDS011;3083;51.508;7.966;2023-04-24T00:15:28;2.70;;;1.00;;
6105;SDS011;3083;51.508;7.966;2023-04-24T00:17:56;3.43;;;1.30;;
6105;SDS011;3083;51.508;7.966;2023-04-24T00:20:22;2.90;;;1.20;;
6105;SDS011;3083;51.508;7.966;2023-04-24T00:22:49;2.83;;;1.17;;
6105;SDS011;3083;51.508;7.966;2023-04-24T00:25:18;3.60;;;1.37;;
6105;SDS011;3083;51.508;7.966;2023-04-24T00:27:45;3.10;;;1.20;;
6105;SDS011;3083;51.508;7.966;2023-04-24T00:30:11;2.90;;;1.20;;
6105;SDS011;3083;51.508;7.966;2023-04-24T00:32:38;3.10;;;1.60;;
6105;SDS011;3083;51.508;7.966;2023-04-24T00:35:06;5.40;;;1.47;;
6105;SDS011;3083;51.508;7.966;2023-04-24T00:37:33;4.20;;;1.93;;
6105;SDS011;3083;51.508;7.966;2023-04-24T00:40:00;3.10;;;1.30;;
6105;SDS011;3083;51.508;7.966;2023-04-24T00:42:29;2.77;;;1.27;;
6105;SDS011;3083;51.508;7.966;2023-04-24T00:44:56;3.13;;;1.40;;
6105;SDS011;3083;51.508;7.966;2023-04-24T00:47:24;3.03;;;1.40;;
6105;SDS011;3083;51.508;7.966;2023-04-24T00:49:51;3.93;;;1.40;;
6105;SDS011;3083;51.508;7.966;2023-04-24T00:52:18;3.30;;;1.33;;
6105;SDS011;3083;51.508;7.966;2023-04-24T00:54:45;3.07;;;1.30;;
6105;SDS011;3083;51.508;7.966;2023-04-24T00:57:13;2.77;;;1.30;;
6105;SDS011;3083;51.508;7.966;2023-04-24T00:59:42;3.13;;;1.50;;
6105;SDS011;3083;51.508;7.966;2023-04-24T01:02:10;2.80;;;1.27;;
6105;SDS011;3083;51.508;7.966;2023-04-24T01:04:38;3.00;;;1.40;;
6105;SDS011;3083;51.508;7.966;2023-04-24T01:07:05;2.73;;;1.33;;
6105;SDS011;3083;51.508;7.966;2023-04-24T01:09:35;2.70;;;1.30;;
6105;SDS011;3083;51.508;7.966;2023-04-24T01:12:03;3.10;;;1.37;;
6105;SDS011;3083;51.508;7.966;2023-04-24T01:14:30;2.90;;;1.30;;
6105;SDS011;3083;51.508;7.966;2023-04-24T01:16:59;2.60;;;1.20;;
6105;SDS011;3083;51.508;7.966;2023-04-24T01:19:26;3.10;;;1.30;;
6105;SDS011;3083;51.508;7.966;2023-04-24T01:21:53;3.80;;;1.40;;
6105;SDS011;3083;51.508;7.966;2023-04-24T01:24:25;3.07;;;1.43;;
6105;SDS011;3083;51.508;7.966;2023-04-24T01:26:52;3.50;;;1.70;;
6105;SDS011;3083;51.508;7.966;2023-04-24T01:29:20;3.67;;;1.63;;
6105;SDS011;3083;51.508;7.966;2023-04-24T01:31:47;3.50;;;1.50;;
6105;SDS011;3083;51.508;7.966;2023-04-24T01:34:14;3.00;;;1.50;;
6105;SDS011;3083;51.508;7.966;2023-04-24T01:36:42;3.30;;;1.50;;
6105;SDS011;3083;51.508;7.966;2023-04-24T01:39:11;3.40;;;1.50;;
6105;SDS011;3083;51.508;7.966;2023-04-24T01:41:40;2.40;;;1.13;;
6105;SDS011;3083;51.508;7.966;2023-04-24T01:44:07;3.40;;;1.47;;
6105;SDS011;3083;51.508;7.966;2023-04-24T01:46:34;3.00;;;1.50;;
6105;SDS011;3083;51.508;7.966;2023-04-24T01:49:01;4.40;;;1.50;;
6105;SDS011;3083;51.508;7.966;2023-04-24T01:51:28;2.80;;;1.30;;
6105;SDS011;3083;51.508;7.966;2023-04-24T01:53:55;3.10;;;1.60;;
6105;SDS011;3083;51.508;7.966;2023-04-24T01:56:22;3.57;;;1.70;;
6105;SDS011;3083;51.508;7.966;2023-04-24T01:58:50;4.50;;;1.60;;
6105;SDS011;3083;51.508;7.966;2023-04-24T02:01:19;4.07;;;1.67;;
6105;SDS011;3083;51.508;7.966;2023-04-24T02:03:47;3.37;;;1.67;;
6105;SDS011;3083;51.508;7.966;2023-04-24T02:06:14;3.23;;;1.50;;
6105;SDS011;3083;51.508;7.966;2023-04-24T02:08:41;4.10;;;1.70;;
6105;SDS011;3083;51.508;7.966;2023-04-24T02:11:08;3.40;;;1.57;;
6105;SDS011;3083;51.508;7.966;2023-04-24T02:13:35;3.50;;;1.70;;
6105;SDS011;3083;51.508;7.966;2023-04-24T02:16:03;3.70;;;1.73;;
6105;SDS011;3083;51.508;7.966;2023-04-24T02:18:30;3.57;;;1.77;;
6105;SDS011;3083;51.508;7.966;2023-04-24T02:20:57;3.63;;;1.80;;
6105;SDS011;3083;51.508;7.966;2023-04-24T02:23:24;4.80;;;2.10;;
6105;SDS011;3083;51.508;7.966;2023-04-24T02:25:52;4.00;;;1.93;;
6105;SDS011;3083;51.508;7.966;2023-04-24T02:28:19;3.67;;;1.90;;
6105;SDS011;3083;51.508;7.966;2023-04-24T02:30:46;4.50;;;2.10;;
6105;SDS011;3083;51.508;7.966;2023-04-24T02:33:14;4.63;;;2.43;;
6105;SDS011;3083;51.508;7.966;2023-04-24T02:35:41;5.33;;;2.73;;
6105;SDS011;3083;51.508;7.966;2023-04-24T02:38:08;6.00;;;2.23;;
6105;SDS011;3083;51.508;7.966;2023-04-24T02:40:35;4.10;;;2.03;;
6105;SDS011;3083;51.508;7.966;2023-04-24T02:43:02;5.53;;;2.30;;
6105;SDS011;3083;51.508;7.966;2023-04-24T02:45:29;4.30;;;2.30;;
6105;SDS011;3083;51.508;7.966;2023-04-24T02:47:55;3.43;;;1.90;;
6105;SDS011;3083;51.508;7.966;2023-04-24T02:50:24;3.83;;;2.20;;
6105;SDS011;3083;51.508;7.966;2023-04-24T02:52:50;4.53;;;2.40;;
6105;SDS011;3083;51.508;7.966;2023-04-24T02:55:17;5.80;;;2.50;;
6105;SDS011;3083;51.508;7.966;2023-04-24T02:57:45;5.70;;;2.40;;
6105;SDS011;3083;51.508;7.966;2023-04-24T03:00:12;4.40;;;2.50;;
6105;SDS011;3083;51.508;7.966;2023-04-24T03:02:39;6.60;;;2.47;;
6105;SDS011;3083;51.508;7.966;2023-04-24T03:05:06;5.50;;;2.70;;
6105;SDS011;3083;51.508;7.966;2023-04-24T03:07:35;5.63;;;2.50;;
6105;SDS011;3083;51.508;7.966;2023-04-24T03:10:02;5.10;;;2.60;;
6105;SDS011;3083;51.508;7.966;2023-04-24T03:12:30;5.17;;;3.10;;
6105;SDS011;3083;51.508;7.966;2023-04-24T03:14:57;5.10;;;2.63;;
6105;SDS011;3083;51.508;7.966;2023-04-24T03:17:24;5.80;;;3.10;;
6105;SDS011;3083;51.508;7.966;2023-04-24T03:19:51;5.53;;;2.93;;
6105;SDS011;3083;51.508;7.966;2023-04-24T03:22:18;4.90;;;2.60;;
6105;SDS011;3083;51.508;7.966;2023-04-24T03:24:46;4.00;;;2.47;;
6105;SDS011;3083;51.508;7.966;2023-04-24T03:27:13;4.73;;;2.50;;
6105;SDS011;3083;51.508;7.966;2023-04-24T03:29:40;5.63;;;2.90;;
6105;SDS011;3083;51.508;7.966;2023-04-24T03:32:07;5.07;;;2.60;;
6105;SDS011;3083;51.508;7.966;2023-04-24T03:34:34;5.23;;;2.83;;
6105;SDS011;3083;51.508;7.966;2023-04-24T03:37:01;5.13;;;2.60;;
6105;SDS011;3083;51.508;7.966;2023-04-24T03:39:28;7.30;;;2.80;;
6105;SDS011;3083;51.508;7.966;2023-04-24T03:41:56;4.87;;;2.90;;
6105;SDS011;3083;51.508;7.966;2023-04-24T03:44:23;8.50;;;2.93;;
6105;SDS011;3083;51.508;7.966;2023-04-24T03:46:50;5.03;;;3.03;;
6105;SDS011;3083;51.508;7.966;2023-04-24T03:49:16;7.40;;;3.37;;
6105;SDS011;3083;51.508;7.966;2023-04-24T03:51:43;5.10;;;3.30;;
6105;SDS011;3083;51.508;7.966;2023-04-24T03:54:10;6.27;;;3.13;;
6105;SDS011;3083;51.508;7.966;2023-04-24T03:56:37;6.83;;;3.53;;
6105;SDS011;3083;51.508;7.966;2023-04-24T03:59:05;6.10;;;3.67;;
6105;SDS011;3083;51.508;7.966;2023-04-24T04:01:32;9.07;;;4.33;;
6105;SDS011;3083;51.508;7.966;2023-04-24T04:04:01;7.03;;;4.10;;
6105;SDS011;3083;51.508;7.966;2023-04-24T04:06:28;10.13;;;5.00;;
6105;SDS011;3083;51.508;7.966;2023-04-24T04:08:56;11.43;;;5.80;;
6105;SDS011;3083;51.508;7.966;2023-04-24T04:11:24;10.47;;;6.00;;
6105;SDS011;3083;51.508;7.966;2023-04-24T04:13:51;12.20;;;6.60;;
6105;SDS011;3083;51.508;7.966;2023-04-24T04:16:19;13.30;;;6.30;;
6105;SDS011;3083;51.508;7.966;2023-04-24T04:18:46;15.37;;;7.37;;
6105;SDS011;3083;51.508;7.966;2023-04-24T04:21:13;15.90;;;8.60;;
6105;SDS011;3083;51.508;7.966;2023-04-24T04:23:40;18.03;;;7.80;;
6105;SDS011;3083;51.508;7.966;2023-04-24T04:26:07;14.63;;;7.47;;
6105;SDS011;3083;51.508;7.966;2023-04-24T04:28:34;15.30;;;8.47;;
6105;SDS011;3083;51.508;7.966;2023-04-24T04:31:01;17.87;;;8.80;;
6105;SDS011;3083;51.508;7.966;2023-04-24T04:33:29;15.60;;;8.27;;
6105;SDS011;3083;51.508;7.966;2023-04-24T04:35:56;16.80;;;8.07;;
6105;SDS011;3083;51.508;7.966;2023-04-24T04:38:25;15.87;;;7.97;;
6105;SDS011;3083;51.508;7.966;2023-04-24T04:40:55;13.77;;;7.30;;
6105;SDS011;3083;51.508;7.966;2023-04-24T04:43:22;18.27;;;8.27;;
6105;SDS011;3083;51.508;7.966;2023-04-24T04:45:49;16.90;;;8.50;;
6105;SDS011;3083;51.508;7.966;2023-04-24T04:48:17;17.77;;;9.27;;
6105;SDS011;3083;51.508;7.966;2023-04-24T04:50:45;19.20;;;8.80;;
6105;SDS011;3083;51.508;7.966;2023-04-24T04:53:12;17.60;;;8.10;;
6105;SDS011;3083;51.508;7.966;2023-04-24T04:55:40;17.43;;;8.17;;
6105;SDS011;3083;51.508;7.966;2023-04-24T04:58:07;14.37;;;8.20;;
6105;SDS011;3083;51.508;7.966;2023-04-24T05:00:34;19.70;;;8.30;;
6105;SDS011;3083;51.508;7.966;2023-04-24T05:03:02;17.07;;;8.57;;
6105;SDS011;3083;51.508;7.966;2023-04-24T05:05:29;18.33;;;8.70;;
6105;SDS011;3083;51.508;7.966;2023-04-24T05:07:57;17.40;;;7.73;;
6105;SDS011;3083;51.508;7.966;2023-04-24T05:10:24;15.40;;;7.20;;
6105;SDS011;3083;51.508;7.966;2023-04-24T05:12:51;15.43;;;8.30;;
6105;SDS011;3083;51.508;7.966;2023-04-24T05:15:18;16.60;;;7.73;;
6105;SDS011;3083;51.508;7.966;2023-04-24T05:17:45;15.20;;;7.63;;
6105;SDS011;3083;51.508;7.966;2023-04-24T05:20:12;13.07;;;7.20;;
6105;SDS011;3083;51.508;7.966;2023-04-24T05:22:39;13.17;;;6.50;;
6105;SDS011;3083;51.508;7.966;2023-04-24T05:25:08;14.33;;;7.33;;
6105;SDS011;3083;51.508;7.966;2023-04-24T05:27:35;11.53;;;6.63;;
6105;SDS011;3083;51.508;7.966;2023-04-24T05:30:02;12.27;;;6.47;;
6105;SDS011;3083;51.508;7.966;2023-04-24T05:32:29;14.70;;;7.40;;
6105;SDS011;3083;51.508;7.966;2023-04-24T05:34:56;13.67;;;7.47;;
6105;SDS011;3083;51.508;7.966;2023-04-24T05:37:23;14.90;;;7.53;;
6105;SDS011;3083;51.508;7.966;2023-04-24T05:39:50;14.80;;;7.33;;
6105;SDS011;3083;51.508;7.966;2023-04-24T05:42:19;13.67;;;7.60;;
6105;SDS011;3083;51.508;7.966;2023-04-24T05:44:46;13.23;;;6.70;;
6105;SDS011;3083;51.508;7.966;2023-04-24T05:47:12;15.50;;;7.70;;
6105;SDS011;3083;51.508;7.966;2023-04-24T05:49:40;15.80;;;7.60;;
6105;SDS011;3083;51.508;7.966;2023-04-24T05:52:07;15.43;;;7.80;;
6105;SDS011;3083;51.508;7.966;2023-04-24T05:54:34;12.93;;;7.30;;
6105;SDS011;3083;51.508;7.966;2023-04-24T05:57:01;16.87;;;7.73;;
6105;SDS011;3083;51.508;7.966;2023-04-24T12:00:04;6.80;;;3.43;;
6105;SDS011;3083;51.508;7.966;2023-04-24T12:02:33;8.57;;;4.33;;
6105;SDS011;3083;51.508;7.966;2023-04-24T12:05:00;8.20;;;4.63;;
6105;SDS011;3083;51.508;7.966;2023-04-24T12:07:26;10.80;;;5.10;;
6105;SDS011;3083;51.508;7.966;2023-04-24T12:09:57;10.93;;;5.10;;
6105;SDS011;3083;51.508;7.966;2023-04-24T12:12:26;9.53;;;5.40;;
6105;SDS011;3083;51.508;7.966;2023-04-24T12:14:54;10.17;;;5.83;;
6105;SDS011;3083;51.508;7.966;2023-04-24T12:17:27;15.40;;;6.50;;
6105;SDS011;3083;51.508;7.966;2023-04-24T12:19:58;14.60;;;7.10;;
6105;SDS011;3083;51.508;7.966;2023-04-24T12:22:27;18.73;;;6.60;;
6105;SDS011;3083;51.508;7.966;2023-04-24T12:24:59;17.37;;;7.30;;
6105;SDS011;3083;51.508;7.966;2023-04-24T12:27:30;10.70;;;6.23;;
6105;SDS011;3083;51.508;7.966;2023-04-24T12:29:58;17.67;;;7.07;;
6105;SDS011;3083;51.508;7.966;2023-04-24T12:32:27;16.57;;;6.50;;
6105;SDS011;3083;51.508;7.966;2023-04-24T12:34:55;13.80;;;6.90;;
6105;SDS011;3083;51.508;7.966;2023-04-24T12:37:23;14.40;;;7.00;;
6105;SDS011;3083;51.508;7.966;2023-04-24T12:40:00;11.60;;;6.37;;
6105;SDS011;3083;51.508;7.966;2023-04-24T12:42:29;12.70;;;7.80;;
6105;SDS011;3083;51.508;7.966;2023-04-24T12:44:56;15.60;;;7.13;;
6105;SDS011;3083;51.508;7.966;2023-04-24T12:47:25;12.30;;;6.97;;
6105;SDS011;3083;51.508;7.966;2023-04-24T12:49:54;18.70;;;7.60;;
6105;SDS011;3083;51.508;7.966;2023-04-24T12:52:21;15.10;;;7.40;;
6105;SDS011;3083;51.508;7.966;2023-04-24T12:54:51;15.17;;;8.10;;
6105;SDS011;3083;51.508;7.966;2023-04-24T12:57:20;15.47;;;7.80;;
6105;SDS011;3083;51.508;7.966;2023-04-24T12:59:47;18.43;;;7.57;;
6105;SDS011;3083;51.508;7.966;2023-04-24T13:02:13;15.40;;;7.80;;
6105;SDS011;3083;51.508;7.966;2023-04-24T13:04:44;16.03;;;7.30;;
6105;SDS011;3083;51.508;7.966;2023-04-24T13:07:12;14.77;;;7.50;;
6105;SDS011;3083;51.508;7.966;2023-04-24T13:09:39;18.03;;;7.50;;
6105;SDS011;3083;51.508;7.966;2023-04-24T13:12:06;18.53;;;7.50;;
6105;SDS011;3083;51.508;7.966;2023-04-24T13:14:34;24.97;;;8.87;;
6105;SDS011;3083;51.508;7.966;2023-04-24T13:17:01;17.70;;;8.70;;
6105;SDS011;3083;51.508;7.966;2023-04-24T13:19:29;15.13;;;7.30;;
6105;SDS011;3083;51.508;7.966;2023-04-24T13:22:02;14.27;;;7.83;;
6105;SDS011;3083;51.508;7.966;2023-04-24T13:24:30;11.13;;;6.67;;
6105;SDS011;3083;51.508;7.966;2023-04-24T13:26:57;10.80;;;6.33;;
6105;SDS011;3083;51.508;7.966;2023-04-24T13:29:25;16.77;;;6.03;;
6105;SDS011;3083;51.508;7.966;2023-04-24T13:31:52;12.70;;;5.90;;
6105;SDS011;3083;51.508;7.966;2023-04-24T13:34:20;11.20;;;5.20;;
6105;SDS011;3083;51.508;7.966;2023-04-24T13:36:47;10.77;;;5.40;;
6105;SDS011;3083;51.508;7.966;2023-04-24T13:39:17;11.93;;;5.33;;
6105;SDS011;3083;51.508;7.966;2023-04-24T13:41:44;12.33;;;5.80;;
6105;SDS011;3083;51.508;7.966;2023-04-24T13:44:12;11.37;;;5.37;;
6105;SDS011;3083;51.508;7.966;2023-04-24T13:46:40;10.00;;;5.70;;
6105;SDS011;3083;51.508;7.966;2023-04-24T13:49:08;13.77;;;6.20;;
6105;SDS011;3083;51.508;7.966;2023-04-24T13:51:35;12.53;;;6.30;;
6105;SDS011;3083;51.508;7.966;2023-04-24T13:54:02;10.77;;;5.47;;
6105;SDS011;3083;51.508;7.966;2023-04-24T13:56:30;10.93;;;5.40;;
6105;SDS011;3083;51.508;7.966;2023-04-24T13:58:57;11.00;;;5.70;;
6105;SDS011;3083;51.508;7.966;2023-04-24T14:01:24;10.53;;;5.83;;
6105;SDS011;3083;51.508;7.966;2023-04-24T14:03:51;12.77;;;5.10;;
6105;SDS011;3083;51.508;7.966;2023-04-24T14:06:18;9.80;;;4.90;;
6105;SDS011;3083;51.508;7.966;2023-04-24T14:08:45;9.97;;;4.57;;
6105;SDS011;3083;51.508;7.966;2023-04-24T14:11:12;11.83;;;4.80;;
6105;SDS011;3083;51.508;7.966;2023-04-24T14:13:41;12.27;;;5.23;;
6105;SDS011;3083;51.508;7.966;2023-04-24T14:16:09;9.83;;;4.77;;
6105;SDS011;3083;51.508;7.966;2023-04-24T14:18:36;8.70;;;4.50;;
6105;SDS011;3083;51.508;7.966;2023-04-24T14:21:03;11.20;;;5.20;;
6105;SDS011;3083;51.508;7.966;2023-04-24T14:23:30;10.20;;;5.00;;
6105;SDS011;3083;51.508;7.966;2023-04-24T14:25:58;10.23;;;5.00;;
6105;SDS011;3083;51.508;7.966;2023-04-24T14:28:25;10.90;;;4.87;;
6105;SDS011;3083;51.508;7.966;2023-04-24T14:30:53;8.10;;;4.10;;
6105;SDS011;3083;51.508;7.966;2023-04-24T14:33:20;7.97;;;4.17;;
6105;SDS011;3083;51.508;7.966;2023-04-24T14:35:47;9.50;;;4.33;;
6105;SDS011;3083;51.508;7.966;2023-04-24T14:38:14;8.90;;;4.37;;
6105;SDS011;3083;51.508;7.966;2023-04-24T14:40:41;7.47;;;3.80;;
6105;SDS011;3083;51.508;7.966;2023-04-24T14:43:08;13.63;;;4.23;;
6105;SDS011;3083;51.508;7.966;2023-04-24T14:45:35;7.53;;;3.90;;
6105;SDS011;3083;51.508;7.966;2023-04-24T14:48:04;9.40;;;4.43;;
6105;SDS011;3083;51.508;7.966;2023-04-24T14:50:33;7.17;;;4.27;;
6105;SDS011;3083;51.508;7.966;2023-04-24T14:52:59;7.40;;;4.13;;
6105;SDS011;3083;51.508;7.966;2023-04-24T14:55:27;7.43;;;3.40;;
6105;SDS011;3083;51.508;7.966;2023-04-24T14:57:54;12.33;;;4.00;;
6105;SDS011;3083;51.508;7.966;2023-04-24T15:00:21;8.40;;;3.80;;
6105;SDS011;3083;51.508;7.966;2023-04-24T15:02:49;5.80;;;3.37;;
6105;SDS011;3083;51.508;7.966;2023-04-24T15:05:17;6.90;;;3.90;;
6105;SDS011;3083;51.508;7.966;2023-04-24T15:07:44;7.90;;;3.73;;
6105;SDS011;3083;51.508;7.966;2023-04-24T15:10:11;7.07;;;3.80;;
6105;SDS011;3083;51.508;7.966;2023-04-24T15:12:38;5.70;;;3.30;;
6105;SDS011;3083;51.508;7.966;2023-04-24T15:15:05;8.80;;;3.00;;
6105;SDS011;3083;51.508;7.966;2023-04-24T15:17:33;7.17;;;3.77;;
6105;SDS011;3083;51.508;7.966;2023-04-24T15:20:00;5.50;;;2.80;;
6105;SDS011;3083;51.508;7.966;2023-04-24T15:22:30;7.33;;;3.10;;
6105;SDS011;3083;51.508;7.966;2023-04-24T15:24:56;5.70;;;3.00;;
6105;SDS011;3083;51.508;7.966;2023-04-24T15:27:23;13.00;;;2.90;;
6105;SDS011;3083;51.508;7.966;2023-04-24T15:29:50;6.00;;;2.67;;
6105;SDS011;3083;51.508;7.966;2023-04-24T15:32:18;5.57;;;2.70;;
6105;SDS011;3083;51.508;7.966;2023-04-24T15:34:45;6.80;;;2.73;;
6105;SDS011;3083;51.508;7.966;2023-04-24T15:37:12;7.30;;;2.70;;
6105;SDS011;3083;51.508;7.966;2023-04-24T15:39:40;5.67;;;3.10;;
6105;SDS011;3083;51.508;7.966;2023-04-24T15:42:10;7.40;;;3.07;;
6105;SDS011;3083;51.508;7.966;2023-04-24T15:44:37;6.60;;;3.40;;
6105;SDS011;3083;51.508;7.966;2023-04-24T15:47:04;6.67;;;3.27;;
6105;SDS011;3083;51.508;7.966;2023-04-24T15:49:31;5.70;;;3.37;;
6105;SDS011;3083;51.508;7.966;2023-04-24T15:51:58;7.70;;;3.63;;
6105;SDS011;3083;51.508;7.966;2023-04-24T15:54:25;6.60;;;3.57;;
6105;SDS011;3083;51.508;7.966;2023-04-24T15:56:53;10.27;;;4.10;;
6105;SDS011;3083;51.508;7.966;2023-04-24T15:59:20;7.50;;;4.40;;
6105;SDS011;3083;51.508;7.966;2023-04-24T16:01:48;8.80;;;4.90;;
6105;SDS011;3083;51.508;7.966;2023-04-24T16:04:15;7.50;;;4.17;;
6105;SDS011;3083;51.508;7.966;2023-04-24T16:06:41;9.60;;;5.03;;
6105;SDS011;3083;51.508;7.966;2023-04-24T16:09:08;9.80;;;4.80;;
6105;SDS011;3083;51.508;7.966;2023-04-24T16:11:37;8.33;;;5.17;;
6105;SDS011;3083;51.508;7.966;2023-04-24T16:14:05;7.87;;;4.60;;
6105;SDS011;3083;51.508;7.966;2023-04-24T16:16:33;11.97;;;6.20;;
6105;SDS011;3083;51.508;7.966;2023-04-24T16:19:00;9.07;;;5.17;;
6105;SDS011;3083;51.508;7.966;2023-04-24T16:21:26;9.93;;;4.87;;
6105;SDS011;3083;51.508;7.966;2023-04-24T16:23:53;9.83;;;4.87;;
6105;SDS011;3083;51.508;7.966;2023-04-24T16:26:20;9.77;;;5.10;;
6105;SDS011;3083;51.508;7.966;2023-04-24T16:28:47;11.20;;;4.20;;
6105;SDS011;3083;51.508;7.966;2023-04-24T16:31:16;7.20;;;3.90;;
6105;SDS011;3083;51.508;7.966;2023-04-24T16:33:42;8.23;;;3.70;;
6105;SDS011;3083;51.508;7.966;2023-04-24T16:36:09;5.87;;;3.80;;
6105;SDS011;3083;51.508;7.966;2023-04-24T16:38:37;6.30;;;3.67;;
6105;SDS011;3083;51.508;7.966;2023-04-24T16:41:06;5.90;;;3.50;;
6105;SDS011;3083;51.508;7.966;2023-04-24T16:43:33;6.10;;;3.30;;
6105;SDS011;3083;51.508;7.966;2023-04-24T16:45:59;9.67;;;3.23;;
6105;SDS011;3083;51.508;7.966;2023-04-24T16:48:28;12.03;;;2.90;;
6105;SDS011;3083;51.508;7.966;2023-04-24T16:50:57;6.40;;;3.40;;
6105;SDS011;3083;51.508;7.966;2023-04-24T16:53:24;6.40;;;3.20;;
6105;SDS011;3083;51.508;7.966;2023-04-24T16:55:51;7.77;;;4.03;;
6105;SDS011;3083;51.508;7.966;2023-04-24T16:58:18;5.67;;;2.97;;
6105;SDS011;3083;51.508;7.966;2023-04-24T17:00:45;5.07;;;2.93;;
6105;SDS011;3083;51.508;7.966;2023-04-24T17:03:12;6.67;;;2.97;;
6105;SDS011;3083;51.508;7.966;2023-04-24T17:05:41;5.50;;;3.20;;
6105;SDS011;3083;51.508;7.966;2023-04-24T17:08:08;5.83;;;3.30;;
6105;SDS011;3083;51.508;7.966;2023-04-24T17:10:35;8.13;;;3.67;;
6105;SDS011;3083;51.508;7.966;2023-04-24T17:13:02;9.53;;;3.47;;
6105;SDS011;3083;51.508;7.966;2023-04-24T17:15:29;7.03;;;3.90;;
6105;SDS011;3083;51.508;7.966;2023-04-24T17:17:55;7.10;;;4.00;;
6105;SDS011;3083;51.508;7.966;2023-04-24T17:20:22;8.87;;;4.20;;
6105;SDS011;3083;51.508;7.966;2023-04-24T17:22:51;6.90;;;2.73;;
6105;SDS011;3083;51.508;7.966;2023-04-24T17:25:17;5.33;;;3.10;;
6105;SDS011;3083;51.508;7.966;2023-04-24T17:27:45;6.10;;;3.17;;
6105;SDS011;3083;51.508;7.966;2023-04-24T17:30:12;7.60;;;3.50;;
6105;SDS011;3083;51.508;7.966;2023-04-24T17:32:41;5.80;;;3.27;;
6105;SDS011;3083;51.508;7.966;2023-04-24T17:35:08;5.67;;;3.33;;
6105;SDS011;3083;51.508;7.966;2023-04-24T17:37:35;10.10;;;3.33;;
6105;SDS011;3083;51.508;7.966;2023-04-24T17:40:05;7.80;;;3.67;;
6105;SDS011;3083;51.508;7.966;2023-04-24T17:42:33;7.40;;;3.13;;
6105;SDS011;3083;51.508;7.966;2023-04-24T17:45:00;6.30;;;3.57;;
6105;SDS011;3083;51.508;7.966;2023-04-24T17:47:27;5.50;;;3.43;;
6105;SDS011;3083;51.508;7.966;2023-04-24T17:49:54;6.23;;;3.20;;
6105;SDS011;3083;51.508;7.966;2023-04-24T17:52:21;5.10;;;3.17;;
6105;SDS011;3083;51.508;7.966;2023-04-24T17:54:48;6.47;;;3.33;;
6105;SDS011;3083;51.508;7.966;2023-04-24T17:57:16;8.60;;;3.77;;
6105;SDS011;3083;51.508;7.966;2023-04-24T17:59:43;5.90;;;3.77;;
6105;SDS011;3083;51.508;7.966;2023-04-24T18:02:11;7.33;;;3.60;;
6105;SDS011;3083;51.508;7.966;2023-04-24T18:04:38;7.60;;;3.40;;
6105;SDS011;3083;51.508;7.966;2023-04-24T18:07:06;6.80;;;3.37;;
6105;SDS011;3083;51.508;7.966;2023-04-24T18:09:33;10.93;;;3.90;;
6105;SDS011;3083;51.508;7.966;2023-04-24T18:12:00;7.10;;;4.00;;
6105;SDS011;3083;51.508;7.966;2023-04-24T18:14:29;9.40;;;4.13;;
6105;SDS011;3083;51.508;7.966;2023-04-24T18:16:56;7.90;;;3.70;;
6105;SDS011;3083;51.508;7.966;2023-04-24T18:19:23;7.57;;;3.87;;
6105;SDS011;3083;51.508;7.966;2023-04-24T18:21:50;8.27;;;3.80;;
6105;SDS011;3083;51.508;7.966;2023-04-24T18:24:16;6.97;;;3.50;;
6105;SDS011;3083;51.508;7.966;2023-04-24T18:26:46;8.60;;;3.57;;
6105;SDS011;3083;51.508;7.966;2023-04-24T18:29:13;7.13;;;3.73;;
6105;SDS011;3083;51.508;7.966;2023-04-24T18:31:41;9.87;;;4.20;;
6105;SDS011;3083;51.508;7.966;2023-04-24T18:34:08;8.10;;;3.50;;
6105;SDS011;3083;51.508;7.966;2023-04-24T18:36:35;14.20;;;4.17;;
6105;SDS011;3083;51.508;7.966;2023-04-24T18:39:02;7.03;;;3.10;;
6105;SDS011;3083;51.508;7.966;2023-04-24T18:41:29;8.23;;;3.57;;
6105;SDS011;3083;51.508;7.966;2023-04-24T18:43:56;6.60;;;3.40;;
6105;SDS011;3083;51.508;7.966;2023-04-24T18:46:23;5.97;;;3.70;;
6105;SDS011;3083;51.508;7.966;2023-04-24T18:48:51;8.20;;;3.73;;
6105;SDS011;3083;51.508;7.966;2023-04-24T18:51:18;8.50;;;3.50;;
6105;SDS011;3083;51.508;7.966;2023-04-24T18:53:45;6.50;;;3.17;;
6105;SDS011;3083;51.508;7.966;2023-04-24T18:56:12;7.47;;;3.60;;
6105;SDS011;3083;51.508;7.966;2023-04-24T18:58:40;8.27;;;3.37;;
6105;SDS011;3083;51.508;7.966;2023-04-24T19:01:10;7.70;;;3.20;;
6105;SDS011;3083;51.508;7.966;2023-04-24T19:03:37;8.50;;;3.30;;
6105;SDS011;3083;51.508;7.966;2023-04-24T19:06:05;8.67;;;3.40;;
6105;SDS011;3083;51.508;7.966;2023-04-24T19:08:32;9.43;;;3.97;;
6105;SDS011;3083;51.508;7.966;2023-04-24T19:11:02;6.47;;;3.40;;
6105;SDS011;3083;51.508;7.966;2023-04-24T19:13:29;9.97;;;3.30;;
6105;SDS011;3083;51.508;7.966;2023-04-24T19:15:56;7.40;;;2.90;;
6105;SDS011;3083;51.508;7.966;2023-04-24T19:18:23;9.23;;;3.10;;
6105;SDS011;3083;51.508;7.966;2023-04-24T19:20:50;7.50;;;3.13;;
6105;SDS011;3083;51.508;7.966;2023-04-24T19:23:18;6.73;;;2.70;;
6105;SDS011;3083;51.508;7.966;2023-04-24T19:25:45;8.53;;;3.50;;
6105;SDS011;3083;51.508;7.966;2023-04-24T19:28:13;9.40;;;4.13;;
6105;SDS011;3083;51.508;7.966;2023-04-24T19:30:40;7.10;;;3.60;;
6105;SDS011;3083;51.508;7.966;2023-04-24T19:33:07;10.43;;;3.37;;
6105;SDS011;3083;51.508;7.966;2023-04-24T19:35:34;6.73;;;3.60;;
6105;SDS011;3083;51.508;7.966;2023-04-24T19:38:01;10.23;;;3.40;;
6105;SDS011;3083;51.508;7.966;2023-04-24T19:40:30;9.10;;;3.67;;
6105;SDS011;3083;51.508;7.966;2023-04-24T19:42:57;8.03;;;3.20;;
6105;SDS011;3083;51.508;7.966;2023-04-24T19:45:24;10.30;;;3.90;;
6105;SDS011;3083;51.508;7.966;2023-04-24T19:47:50;9.13;;;4.20;;
6105;SDS011;3083;51.508;7.966;2023-04-24T19:50:18;8.40;;;3.87;;
6105;SDS011;3083;51.508;7.966;2023-04-24T19:52:45;9.77;;;4.50;;
6105;SDS011;3083;51.508;7.966;2023-04-24T19:55:12;9.23;;;4.37;;
6105;SDS011;3083;51.508;7.966;2023-04-24T19:57:40;9.43;;;4.10;;
6105;SDS011;3083;51.508;7.966;2023-04-24T20:00:08;10.17;;;4.70;;
6105;SDS011;3083;51.508;7.966;2023-04-24T20:02:35;10.50;;;3.93;;
6105;SDS011;3083;51.508;7.966;2023-04-24T20:05:02;10.00;;;3.77;;
6105;SDS011;3083;51.508;7.966;2023-04-24T20:07:29;7.77;;;4.00;;
6105;SDS011;3083;51.508;7.966;2023-04-24T20:09:56;10.80;;;4.40;;
6105;SDS011;3083;51.508;7.966;2023-04-24T20:12:23;9.17;;;4.50;;
6105;SDS011;3083;51.508;7.966;2023-04-24T20:14:51;8.97;;;4.87;;
6105;SDS011;3083;51.508;7.966;2023-04-24T20:17:18;9.53;;;5.70;;
6105;SDS011;3083;51.508;7.966;2023-04-24T20:19:45;11.73;;;4.67;;
6105;SDS011;3083;51.508;7.966;2023-04-24T20:22:12;7.80;;;4.40;;
6105;SDS011;3083;51.508;7.966;2023-04-24T20:24:39;10.13;;;4.40;;
6105;SDS011;3083;51.508;7.966;2023-04-24T20:27:06;9.47;;;4.57;;
6105;SDS011;3083;51.508;7.966;2023-04-24T20:29:33;9.93;;;4.90;;
6105;SDS011;3083;51.508;7.966;2023-04-24T20:32:01;9.60;;;4.80;;
6105;SDS011;3083;51.508;7.966;2023-04-24T20:34:28;10.13;;;4.80;;
6105;SDS011;3083;51.508;7.966;2023-04-24T20:36:55;11.63;;;4.83;;
6105;SDS011;3083;51.508;7.966;2023-04-24T20:39:23;11.43;;;4.43;;
6105;SDS011;3083;51.508;7.966;2023-04-24T20:41:50;12.13;;;4.77;;
6105;SDS011;3083;51.508;7.966;2023-04-24T20:44:17;8.80;;;4.70;;
6105;SDS011;3083;51.508;7.966;2023-04-24T20:46:44;12.40;;;5.43;;
6105;SDS011;3083;51.508;7.966;2023-04-24T20:49:12;21.53;;;5.17;;
6105;SDS011;3083;51.508;7.966;2023-04-24T20:51:39;8.67;;;4.13;;
6105;SDS011;3083;51.508;7.966;2023-04-24T20:54:06;10.77;;;5.27;;
6105;SDS011;3083;51.508;7.966;2023-04-24T20:56:33;14.90;;;5.27;;
6105;SDS011;3083;51.508;7.966;2023-04-24T20:59:00;11.23;;;4.47;;
6105;SDS011;3083;51.508;7.966;2023-04-24T21:01:27;14.50;;;4.60;;
6105;SDS011;3083;51.508;7.966;2023-04-24T21:03:54;12.60;;;5.03;;
6105;SDS011;3083;51.508;7.966;2023-04-24T21:06:23;10.70;;;4.60;;
6105;SDS011;3083;51.508;7.966;2023-04-24T21:08:49;13.57;;;4.70;;
6105;SDS011;3083;51.508;7.966;2023-04-24T21:11:16;12.80;;;5.67;;